This is the latest recevied weather packets stored in our database for station/object DB0LHR-6. If no packets are shown the sender has not sent any weather packets the latest 1 day(s).
| Time | Temp. | Humidity | Pressure | Rain* | Wind** | Luminosity | Snow |
|---|---|---|---|---|---|---|---|
| 1836274463 | 15.56° C | 74% | 1020 hPa | 0 mm | 0.45 m/s, 121° | - | - |
| 1778010375 | 13.89° C | 90% | 1008 hPa | 0 mm | 0 m/s | - | - |
| 1778009475 | 13.89° C | 89% | 1008 hPa | 0 mm | 0.89 m/s, 153° | - | - |
| 1778008575 | 13.89° C | 89% | 1008 hPa | 0 mm | 0 m/s | - | - |
| 1778007675 | 13.89° C | 88% | 1008 hPa | 0 mm | 0 m/s | - | - |
| 1778006775 | 13.89° C | 87% | 1008 hPa | 0 mm | 0 m/s | - | - |
| 1778005875 | 13.89° C | 87% | 1008 hPa | 0 mm | 0 m/s | - | - |
| 1778004975 | 14.44° C | 87% | 1007 hPa | 0 mm | 0 m/s | - | - |
| 1778004075 | 14.44° C | 87% | 1008 hPa | 0 mm | 0 m/s | - | - |
| 1778003175 | 14.44° C | 88% | 1008 hPa | 0 mm | 0 m/s | - | - |
| 1778002275 | 14.44° C | 88% | 1008 hPa | 0 mm | 0 m/s | - | - |
| 1778001375 | 14.44° C | 88% | 1008 hPa | 0 mm | 0 m/s | - | - |
| 1778000475 | 14.44° C | 87% | 1008 hPa | 0 mm | 0.89 m/s, 208° | - | - |
| 1777999575 | 14.44° C | 85% | 1008 hPa | 0 mm | 0 m/s | - | - |
| 1777998675 | 14.44° C | 83% | 1008 hPa | 0 mm | 1.34 m/s, 167° | - | - |
| 1777997775 | 15° C | 82% | 1008 hPa | 0 mm | 0 m/s | - | - |
| 1777996875 | 15.56° C | 79% | 1008 hPa | 0 mm | 0.89 m/s, 189° | - | - |
| 1777995975 | 16.11° C | 75% | 1008 hPa | 0 mm | 0 m/s | - | - |
| 1777995075 | 17.22° C | 66% | 1007 hPa | 0 mm | 0 m/s | - | - |
| 1777994175 | 17.78° C | 62% | 1007 hPa | 0 mm | 0 m/s | - | - |
| 1777993275 | 18.89° C | 61% | 1007 hPa | 0 mm | 0 m/s | - | - |
| 1777992375 | 18.89° C | 61% | 1007 hPa | 0 mm | 0 m/s | - | - |
| 1777991475 | 18.33° C | 59% | 1007 hPa | 0 mm | 0 m/s | - | - |
| 1777990575 | 18.89° C | 58% | 1007 hPa | 0 mm | 0 m/s | - | - |
| 1777989675 | 18.89° C | 62% | 1008 hPa | 0 mm | 0 m/s | - | - |
* Rain latest 24 hours (hover to see other rain measurements)
** Current wind speed in m/s (hover to see current wind gust speed)